Time;durP1;ratioP1;P1;durP2;ratioP2;P2;SDS_P1;SDS_P2;PMS_P1;PMS_P2;Temp;Humidity;BMP_temperature;BMP_pressure;BME280_temperature;BME280_humidity;BME280_pressure;Samples;Min_cycle;Max_cycle;Signal;HPM_P1;HPM_P2
2022/01/08 00:00:07;;;;;;;8.02;1.70;;;;;;;;;;5014018;28;20128;-93
2022/01/08 00:02:33;;;;;;;8.07;1.83;;;;;;;;;;5014115;28;20036;-93
2022/01/08 00:05:00;;;;;;;7.72;1.73;;;;;;;;;;5013774;28;20057;-93
2022/01/08 00:07:26;;;;;;;6.97;1.73;;;;;;;;;;5014127;28;20385;-93
2022/01/08 00:09:53;;;;;;;4.75;1.55;;;;;;;;;;5016311;28;20117;-93
2022/01/08 00:12:19;;;;;;;4.88;1.80;;;;;;;;;;5017324;28;20021;-94
2022/01/08 00:14:46;;;;;;;8.38;2.00;;;;;;;;;;5016666;28;20447;-93
2022/01/08 00:17:12;;;;;;;6.40;1.85;;;;;;;;;;5016965;28;20056;-94
2022/01/08 00:19:38;;;;;;;5.30;1.92;;;;;;;;;;5017289;28;20124;-92
2022/01/08 00:22:05;;;;;;;9.52;2.22;;;;;;;;;;5016905;28;20025;-93
2022/01/08 00:24:31;;;;;;;4.93;1.75;;;;;;;;;;5017116;28;20141;-93
2022/01/08 00:26:57;;;;;;;7.28;2.03;;;;;;;;;;5016742;28;20375;-93
2022/01/08 00:29:23;;;;;;;7.95;1.77;;;;;;;;;;5016963;28;20108;-94
2022/01/08 00:31:49;;;;;;;7.97;2.03;;;;;;;;;;5017146;28;20121;-94
2022/01/08 00:34:15;;;;;;;4.90;2.28;;;;;;;;;;5016942;28;20021;-94
2022/01/08 00:36:42;;;;;;;6.05;1.70;;;;;;;;;;5017081;28;20032;-94
2022/01/08 00:39:08;;;;;;;7.25;1.80;;;;;;;;;;5016811;28;20064;-94
2022/01/08 00:41:34;;;;;;;7.18;1.95;;;;;;;;;;5017665;28;20467;-93
2022/01/08 00:44:00;;;;;;;9.05;1.83;;;;;;;;;;5016871;28;20112;-94
2022/01/08 00:46:26;;;;;;;6.85;1.92;;;;;;;;;;5016606;28;20065;-94
2022/01/08 00:48:52;;;;;;;8.95;1.92;;;;;;;;;;5016886;28;20109;-94
2022/01/08 00:51:19;;;;;;;5.57;1.67;;;;;;;;;;5016914;28;20112;-93
2022/01/08 00:53:45;;;;;;;5.40;1.83;;;;;;;;;;5016652;28;20108;-94
2022/01/08 00:56:14;;;;;;;5.25;2.47;;;;;;;;;;5016754;28;20040;-94
2022/01/08 00:58:40;;;;;;;5.13;1.60;;;;;;;;;;5016724;28;20479;-94
2022/01/08 01:01:06;;;;;;;4.47;1.80;;;;;;;;;;5016585;28;20376;-94
2022/01/08 01:03:33;;;;;;;4.85;1.52;;;;;;;;;;5016493;28;20487;-94
2022/01/08 01:05:59;;;;;;;7.45;1.98;;;;;;;;;;5016419;28;20120;-94
2022/01/08 01:08:25;;;;;;;8.00;2.00;;;;;;;;;;5016578;28;20026;-95
2022/01/08 01:10:51;;;;;;;6.60;2.38;;;;;;;;;;5016334;28;20046;-95
2022/01/08 01:13:17;;;;;;;5.03;1.92;;;;;;;;;;5016506;28;20104;-94
2022/01/08 01:15:44;;;;;;;6.55;2.00;;;;;;;;;;5016562;28;20120;-94
2022/01/08 01:18:10;;;;;;;3.60;1.70;;;;;;;;;;5016356;28;20030;-94
2022/01/08 01:20:36;;;;;;;7.55;2.40;;;;;;;;;;5016534;28;20545;-94
2022/01/08 01:23:11;;;;;;;5.47;2.17;;;;;;;;;;5016527;28;20172;-94
2022/01/08 01:26:00;;;;;;;11.73;2.83;;;;;;;;;;5016325;28;20040;-94
2022/01/08 01:28:51;;;;;;;5.28;2.05;;;;;;;;;;5019117;28;20021;-94
2022/01/08 01:47:10;;;;;;;4.10;1.65;;;;;;;;;;5037791;28;20079;-94
2022/01/08 01:49:38;;;;;;;7.28;2.65;;;;;;;;;;5019804;28;20079;-94
2022/01/08 01:52:05;;;;;;;5.80;1.70;;;;;;;;;;5020086;28;20025;-95
2022/01/08 01:54:32;;;;;;;7.03;2.30;;;;;;;;;;5019732;28;20025;-95
2022/01/08 01:56:58;;;;;;;6.65;1.95;;;;;;;;;;5019676;28;20021;-94
2022/01/08 01:59:25;;;;;;;8.18;2.25;;;;;;;;;;5019944;28;20049;-96
2022/01/08 02:01:51;;;;;;;7.68;2.15;;;;;;;;;;5019556;28;20025;-95
2022/01/08 02:04:18;;;;;;;9.30;2.45;;;;;;;;;;5019440;28;20025;-94
2022/01/08 02:06:44;;;;;;;7.07;1.70;;;;;;;;;;5019261;28;20029;-94
2022/01/08 02:09:10;;;;;;;4.85;1.58;;;;;;;;;;5020423;28;20044;-93
2022/01/08 02:11:56;;;;;;;5.55;1.40;;;;;;;;;;5019298;28;20048;-93
2022/01/08 02:14:22;;;;;;;7.03;2.17;;;;;;;;;;5019381;28;20025;-93
2022/01/08 02:16:48;;;;;;;7.47;1.40;;;;;;;;;;5019198;28;20030;-94
2022/01/08 02:19:15;;;;;;;8.00;1.58;;;;;;;;;;5019178;28;20025;-93
2022/01/08 02:22:01;;;;;;;3.30;1.27;;;;;;;;;;5019205;28;20029;-93
2022/01/08 02:24:28;;;;;;;7.28;1.98;;;;;;;;;;5018977;28;20056;-93
2022/01/08 02:26:54;;;;;;;9.48;2.28;;;;;;;;;;5019071;28;20022;-92
2022/01/08 02:29:21;;;;;;;4.00;1.70;;;;;;;;;;5019989;28;20491;-94
2022/01/08 02:31:55;;;;;;;5.85;2.00;;;;;;;;;;5019134;28;20025;-93
2022/01/08 02:34:22;;;;;;;6.85;2.28;;;;;;;;;;5019263;28;20033;-93
2022/01/08 02:36:48;;;;;;;7.88;1.80;;;;;;;;;;5018972;28;20128;-93
2022/01/08 02:39:14;;;;;;;8.18;1.75;;;;;;;;;;5018638;28;20036;-93
2022/01/08 02:41:40;;;;;;;9.25;1.90;;;;;;;;;;5018810;28;20116;-93
2022/01/08 02:44:07;;;;;;;8.32;2.13;;;;;;;;;;5018790;28;20033;-93
2022/01/08 02:46:33;;;;;;;9.00;2.00;;;;;;;;;;5018593;28;20071;-94
2022/01/08 02:48:59;;;;;;;6.10;1.98;;;;;;;;;;5018713;28;20017;-95
2022/01/08 02:51:26;;;;;;;5.32;1.25;;;;;;;;;;5018760;28;20079;-93
2022/01/08 02:53:52;;;;;;;5.13;1.30;;;;;;;;;;5018416;28;20029;-95
2022/01/08 02:56:18;;;;;;;5.72;1.90;;;;;;;;;;5018716;28;20035;-93
2022/01/08 02:58:44;;;;;;;6.05;1.63;;;;;;;;;;5018925;28;20487;-93
2022/01/08 03:01:10;;;;;;;7.32;1.70;;;;;;;;;;5018631;28;20086;-93
2022/01/08 03:03:37;;;;;;;8.20;1.80;;;;;;;;;;5018370;28;20038;-94
2022/01/08 03:06:03;;;;;;;6.50;1.30;;;;;;;;;;5018266;28;20043;-93
2022/01/08 03:08:29;;;;;;;6.80;2.10;;;;;;;;;;5018395;28;20022;-93
2022/01/08 03:10:55;;;;;;;6.32;1.58;;;;;;;;;;5018164;28;20045;-93
2022/01/08 03:13:21;;;;;;;8.00;2.08;;;;;;;;;;5018230;28;20049;-93
2022/01/08 03:15:48;;;;;;;4.40;1.67;;;;;;;;;;5018541;28;20467;-93
2022/01/08 03:18:14;;;;;;;4.05;1.42;;;;;;;;;;5018207;28;20030;-94
2022/01/08 03:20:48;;;;;;;5.72;1.40;;;;;;;;;;5018304;28;20488;-94
2022/01/08 03:23:17;;;;;;;2.78;1.00;;;;;;;;;;5017952;28;20480;-94
2022/01/08 03:25:46;;;;;;;6.22;1.35;;;;;;;;;;5017950;28;20026;-94
2022/01/08 03:28:12;;;;;;;5.25;1.38;;;;;;;;;;5018268;28;20029;-95
2022/01/08 03:30:39;;;;;;;13.00;2.20;;;;;;;;;;5017952;28;20079;-94
2022/01/08 03:33:06;;;;;;;7.75;2.35;;;;;;;;;;5017860;28;20124;-95
2022/01/08 03:35:33;;;;;;;4.22;1.23;;;;;;;;;;5018744;28;20037;-95
2022/01/08 03:37:59;;;;;;;7.07;1.60;;;;;;;;;;5017781;28;20079;-94
2022/01/08 03:40:25;;;;;;;3.03;1.30;;;;;;;;;;5017835;28;20049;-95
2022/01/08 03:42:51;;;;;;;9.18;1.85;;;;;;;;;;5017710;28;20077;-95
2022/01/08 03:45:18;;;;;;;10.25;1.50;;;;;;;;;;5017572;28;20442;-95
2022/01/08 03:50:25;;;;;;;8.88;1.70;;;;;;;;;;5034788;28;20036;-94
2022/01/08 03:52:51;;;;;;;3.95;1.25;;;;;;;;;;5017871;28;20361;-96
2022/01/08 03:55:18;;;;;;;6.35;1.25;;;;;;;;;;5017486;28;20035;-95
2022/01/08 03:57:46;;;;;;;7.88;1.98;;;;;;;;;;5017362;28;20060;-94
2022/01/08 04:00:12;;;;;;;3.33;1.65;;;;;;;;;;5018299;28;20029;-94
2022/01/08 04:02:39;;;;;;;7.03;1.13;;;;;;;;;;5017649;28;20479;-95
2022/01/08 04:05:06;;;;;;;6.75;1.35;;;;;;;;;;5017419;28;20022;-94
2022/01/08 04:07:32;;;;;;;4.50;0.95;;;;;;;;;;5018110;28;20505;-94
2022/01/08 04:09:58;;;;;;;4.35;1.30;;;;;;;;;;5017145;28;20034;-94
2022/01/08 04:12:44;;;;;;;10.25;1.88;;;;;;;;;;5017055;28;20053;-93
2022/01/08 04:17:49;;;;;;;3.63;1.10;;;;;;;;;;5034748;28;20458;-93
2022/01/08 04:20:15;;;;;;;5.68;1.30;;;;;;;;;;5017253;28;20495;-94
2022/01/08 04:22:43;;;;;;;4.78;1.25;;;;;;;;;;5017160;28;20110;-93
2022/01/08 04:25:10;;;;;;;4.88;1.20;;;;;;;;;;5016996;28;20026;-94
2022/01/08 04:27:36;;;;;;;5.20;1.40;;;;;;;;;;5017065;28;20542;-94
2022/01/08 04:30:02;;;;;;;4.68;1.00;;;;;;;;;;5017064;28;20113;-94
2022/01/08 04:32:28;;;;;;;6.32;1.27;;;;;;;;;;5016915;28;20017;-93
2022/01/08 04:34:55;;;;;;;4.57;0.88;;;;;;;;;;5017104;28;20026;-94
2022/01/08 04:37:21;;;;;;;4.97;0.80;;;;;;;;;;5016987;28;20155;-94
2022/01/08 04:39:47;;;;;;;3.85;0.95;;;;;;;;;;5017131;28;20036;-94
2022/01/08 04:42:13;;;;;;;4.07;0.90;;;;;;;;;;5016901;28;20029;-94
2022/01/08 04:44:39;;;;;;;8.35;1.30;;;;;;;;;;5017097;28;20025;-93
2022/01/08 04:47:06;;;;;;;10.15;1.00;;;;;;;;;;5017549;28;20025;-94
2022/01/08 04:49:32;;;;;;;5.15;1.15;;;;;;;;;;5017212;28;20040;-94
2022/01/08 04:51:58;;;;;;;6.50;1.67;;;;;;;;;;5016731;28;20480;-93
2022/01/08 04:54:24;;;;;;;7.05;1.80;;;;;;;;;;5016700;28;20022;-95
2022/01/08 04:56:50;;;;;;;10.80;2.08;;;;;;;;;;5016666;28;20060;-95
2022/01/08 05:04:56;;;;;;;7.05;1.20;;;;;;;;;;5018720;28;20045;-93
2022/01/08 05:07:22;;;;;;;12.25;1.85;;;;;;;;;;5001136;28;20088;-92
2022/01/08 05:09:51;;;;;;;8.32;1.42;;;;;;;;;;5000836;28;20052;-93
2022/01/08 05:12:24;;;;;;;4.70;1.10;;;;;;;;;;5000941;28;20025;-94
2022/01/08 05:14:54;;;;;;;5.72;1.27;;;;;;;;;;5000734;28;20026;-94
2022/01/08 05:17:25;;;;;;;10.80;1.73;;;;;;;;;;5000842;28;20391;-93
2022/01/08 05:19:56;;;;;;;8.03;1.30;;;;;;;;;;5001026;28;20022;-95
2022/01/08 05:22:28;;;;;;;8.10;2.17;;;;;;;;;;5001604;28;20022;-95
2022/01/08 05:24:55;;;;;;;10.15;1.77;;;;;;;;;;5001470;28;20026;-94
2022/01/08 05:27:21;;;;;;;6.78;1.23;;;;;;;;;;5000743;28;20470;-94
2022/01/08 05:29:55;;;;;;;6.63;1.60;;;;;;;;;;5000622;28;20026;-94
2022/01/08 05:32:21;;;;;;;11.88;2.17;;;;;;;;;;5000606;28;20077;-96
2022/01/08 05:34:55;;;;;;;6.00;1.83;;;;;;;;;;5000890;28;20502;-96
2022/01/08 05:37:21;;;;;;;9.75;1.98;;;;;;;;;;5001527;28;20034;-96
2022/01/08 05:39:51;;;;;;;18.38;2.38;;;;;;;;;;5000706;28;20072;-95
2022/01/08 05:42:34;;;;;;;10.35;1.45;;;;;;;;;;5000327;28;20018;-96
2022/01/08 05:45:03;;;;;;;8.05;1.70;;;;;;;;;;5000543;28;20538;-96
2022/01/08 05:47:33;;;;;;;9.80;2.13;;;;;;;;;;5000722;28;20475;-96
2022/01/08 05:50:02;;;;;;;9.23;1.70;;;;;;;;;;5000215;28;20480;-95
2022/01/08 05:52:28;;;;;;;10.52;1.65;;;;;;;;;;5000065;28;20045;-95
2022/01/08 05:54:54;;;;;;;6.55;1.50;;;;;;;;;;5000804;28;20026;-95
2022/01/08 05:57:23;;;;;;;11.63;1.80;;;;;;;;;;5000721;28;20026;-96
2022/01/08 06:00:04;;;;;;;12.55;2.28;;;;;;;;;;5000186;28;20426;-95
2022/01/08 06:02:32;;;;;;;9.27;1.70;;;;;;;;;;4999852;28;20026;-96
2022/01/08 06:05:03;;;;;;;10.05;1.90;;;;;;;;;;5016355;28;20049;-96
2022/01/08 06:07:32;;;;;;;8.18;1.80;;;;;;;;;;5016393;28;20077;-95
2022/01/08 06:10:03;;;;;;;8.32;1.35;;;;;;;;;;5016235;28;20026;-96
2022/01/08 06:12:39;;;;;;;8.90;1.95;;;;;;;;;;5015889;28;20026;-95
2022/01/08 06:15:05;;;;;;;16.38;2.72;;;;;;;;;;5016158;28;20040;-96
2022/01/08 06:17:34;;;;;;;6.70;1.08;;;;;;;;;;5016402;28;20446;-95
2022/01/08 06:20:03;;;;;;;6.78;1.48;;;;;;;;;;5016323;28;20030;-95
2022/01/08 06:22:29;;;;;;;7.88;1.30;;;;;;;;;;5016116;28;20034;-95
2022/01/08 06:24:55;;;;;;;4.20;1.05;;;;;;;;;;5016077;28;20080;-96
2022/01/08 06:27:21;;;;;;;10.82;1.65;;;;;;;;;;5016171;28;20113;-95
2022/01/08 06:29:52;;;;;;;9.05;2.17;;;;;;;;;;5015948;28;20037;-94
2022/01/08 06:32:20;;;;;;;12.20;1.80;;;;;;;;;;5015922;28;20108;-95
2022/01/08 06:34:46;;;;;;;4.10;1.60;;;;;;;;;;5015776;28;20029;-94
2022/01/08 06:37:12;;;;;;;5.78;1.10;;;;;;;;;;5015776;28;20018;-95
2022/01/08 06:39:38;;;;;;;5.50;1.20;;;;;;;;;;5015477;28;20026;-95
2022/01/08 06:42:04;;;;;;;4.85;0.98;;;;;;;;;;5015680;28;20499;-94
2022/01/08 06:44:31;;;;;;;11.02;1.73;;;;;;;;;;5015665;28;20029;-93
2022/01/08 06:46:57;;;;;;;12.27;1.48;;;;;;;;;;5015407;28;20026;-94
2022/01/08 06:49:23;;;;;;;8.15;1.90;;;;;;;;;;5015502;28;20653;-94
2022/01/08 06:51:50;;;;;;;4.85;1.17;;;;;;;;;;5015595;28;20080;-95
2022/01/08 06:54:17;;;;;;;7.80;2.05;;;;;;;;;;5016458;28;20022;-95
2022/01/08 06:56:43;;;;;;;7.80;0.90;;;;;;;;;;5015561;28;20505;-94
2022/01/08 06:59:09;;;;;;;13.35;1.92;;;;;;;;;;5015358;28;20025;-95
2022/01/08 07:01:36;;;;;;;5.20;1.23;;;;;;;;;;5016137;28;20505;-94
2022/01/08 07:04:02;;;;;;;5.53;1.30;;;;;;;;;;5015196;28;20495;-95
2022/01/08 07:06:28;;;;;;;6.13;1.20;;;;;;;;;;5015092;28;20022;-95
2022/01/08 07:08:55;;;;;;;4.90;1.40;;;;;;;;;;5015532;28;20120;-94
2022/01/08 07:11:23;;;;;;;3.20;1.08;;;;;;;;;;5015117;28;20506;-96
2022/01/08 07:13:52;;;;;;;9.85;1.83;;;;;;;;;;5016267;28;20026;-96
2022/01/08 07:16:26;;;;;;;8.55;1.55;;;;;;;;;;5015972;28;20021;-94
2022/01/08 07:18:52;;;;;;;9.98;1.35;;;;;;;;;;5015125;28;20025;-95
2022/01/08 07:21:23;;;;;;;4.03;1.30;;;;;;;;;;5015164;28;20029;-96
2022/01/08 07:23:50;;;;;;;8.20;1.50;;;;;;;;;;5015208;28;20550;-95
2022/01/08 07:26:16;;;;;;;4.28;1.40;;;;;;;;;;5014020;28;20026;-95
2022/01/08 07:28:44;;;;;;;5.88;1.30;;;;;;;;;;5015325;28;20026;-96
2022/01/08 07:31:13;;;;;;;9.63;1.60;;;;;;;;;;5015210;28;20476;-96
2022/01/08 07:33:49;;;;;;;;;;;;;;;;;;;;;
2022/01/08 07:36:16;;;;;;;9.35;1.67;;;;;;;;;;5016550;28;20028;-96
2022/01/08 07:38:42;;;;;;;9.50;1.50;;;;;;;;;;5015618;28;20022;-96
2022/01/08 07:41:16;;;;;;;17.05;2.13;;;;;;;;;;5015696;28;20120;-96
2022/01/08 07:43:44;;;;;;;6.35;1.40;;;;;;;;;;5027891;28;20026;-96
2022/01/08 07:46:13;;;;;;;8.77;1.48;;;;;;;;;;5023350;28;20113;-96
2022/01/08 07:48:57;;;;;;;;;;;;;;;;;;;;;
2022/01/08 07:51:23;;;;;;;9.15;1.63;;;;;;;;;;5016946;28;20026;-96
2022/01/08 07:53:53;;;;;;;9.00;1.55;;;;;;;;;;5019407;28;20026;-96
2022/01/08 07:56:32;;;;;;;10.52;1.35;;;;;;;;;;5017965;28;20037;-96
2022/01/08 07:59:05;;;;;;;9.05;1.30;;;;;;;;;;5014861;28;20033;-96
2022/01/08 08:01:34;;;;;;;8.95;1.77;;;;;;;;;;5015554;28;20117;-96
2022/01/08 08:04:02;;;;;;;13.80;2.20;;;;;;;;;;5015545;28;20504;-96
2022/01/08 08:06:36;;;;;;;9.70;1.63;;;;;;;;;;5015107;28;20030;-96
2022/01/08 08:09:04;;;;;;;9.07;1.38;;;;;;;;;;5020669;28;20026;-95
2022/01/08 08:11:33;;;;;;;5.53;1.40;;;;;;;;;;5014929;28;20025;-96
2022/01/08 08:14:15;;;;;;;6.40;1.73;;;;;;;;;;5018591;28;20222;-96
2022/01/08 08:16:44;;;;;;;6.25;1.08;;;;;;;;;;5021203;28;20046;-96
2022/01/08 08:19:12;;;;;;;6.05;1.00;;;;;;;;;;5022873;28;20066;-96
2022/01/08 08:22:02;;;;;;;9.15;1.15;;;;;;;;;;5022085;28;20030;-96
2022/01/08 08:24:46;;;;;;;36.83;3.22;;;;;;;;;;5014824;28;20103;-96
2022/01/08 08:27:15;;;;;;;5.78;1.15;;;;;;;;;;5022317;28;20033;-96
2022/01/08 08:29:44;;;;;;;5.97;2.03;;;;;;;;;;5017249;28;20483;-96
2022/01/08 08:32:13;;;;;;;5.95;1.80;;;;;;;;;;5016627;28;20026;-96
2022/01/08 08:34:56;;;;;;;6.47;1.48;;;;;;;;;;5016760;28;20018;-96
2022/01/08 08:37:22;;;;;;;3.03;1.10;;;;;;;;;;5021406;28;20021;-96
2022/01/08 08:39:51;;;;;;;7.82;1.23;;;;;;;;;;5018032;28;20022;-96
2022/01/08 08:42:25;;;;;;;8.43;1.67;;;;;;;;;;5018932;28;20510;-96
2022/01/08 08:44:54;;;;;;;7.18;1.02;;;;;;;;;;5020459;28;20088;-96
2022/01/08 08:47:43;;;;;;;3.78;1.10;;;;;;;;;;5020448;28;20097;-96
2022/01/08 08:50:12;;;;;;;9.65;1.77;;;;;;;;;;5021224;28;20113;-96
2022/01/08 08:52:46;;;;;;;4.10;1.23;;;;;;;;;;5021639;28;20479;-96
2022/01/08 08:55:14;;;;;;;4.45;1.15;;;;;;;;;;5023662;28;20026;-96
2022/01/08 08:57:43;;;;;;;5.70;1.10;;;;;;;;;;5025368;28;20454;-96
2022/01/08 09:00:26;;;;;;;5.28;1.10;;;;;;;;;;5019520;28;20233;-96
2022/01/08 09:02:55;;;;;;;5.15;0.95;;;;;;;;;;5016802;28;20050;-96
2022/01/08 09:05:23;;;;;;;7.63;1.90;;;;;;;;;;5017759;28;20030;-96
2022/01/08 09:08:04;;;;;;;18.20;3.35;;;;;;;;;;5025449;28;20036;-96
2022/01/08 09:10:33;;;;;;;9.52;1.77;;;;;;;;;;5033863;28;20018;-96
2022/01/08 09:19:13;;;;;;;10.88;1.83;;;;;;;;;;5000784;28;20037;-96
2022/01/08 09:21:52;;;;;;;6.73;1.47;;;;;;;;;;5016867;28;20018;-96
2022/01/08 09:24:26;;;;;;;7.35;1.63;;;;;;;;;;5015347;28;20136;-96
2022/01/08 09:26:55;;;;;;;3.65;1.30;;;;;;;;;;5015191;28;20033;-96
2022/01/08 09:29:23;;;;;;;7.25;1.80;;;;;;;;;;5014045;28;20042;-96
2022/01/08 09:31:52;;;;;;;6.82;1.30;;;;;;;;;;5013442;28;20476;-95
2022/01/08 09:34:26;;;;;;;5.30;1.00;;;;;;;;;;5013337;28;20484;-95
2022/01/08 09:36:52;;;;;;;8.40;1.58;;;;;;;;;;5013334;28;20032;-96
2022/01/08 09:39:27;;;;;;;4.78;1.35;;;;;;;;;;5014401;28;20093;-96
2022/01/08 09:41:55;;;;;;;4.03;1.50;;;;;;;;;;5021413;28;20113;-96
2022/01/08 09:44:21;;;;;;;7.43;1.90;;;;;;;;;;5043702;23;20048;-72
2022/01/08 09:46:47;;;;;;;8.02;1.20;;;;;;;;;;4990986;28;20056;-73
2022/01/08 09:49:13;;;;;;;8.15;1.25;;;;;;;;;;4999070;28;20022;-73
2022/01/08 09:51:39;;;;;;;5.45;1.27;;;;;;;;;;5002929;28;20405;-72
2022/01/08 09:54:05;;;;;;;10.45;1.38;;;;;;;;;;5003097;28;20481;-72
2022/01/08 09:56:32;;;;;;;5.40;1.60;;;;;;;;;;5002846;28;20022;-73
2022/01/08 09:59:00;;;;;;;7.57;2.15;;;;;;;;;;5002445;28;20026;-75
2022/01/08 10:01:28;;;;;;;2.95;0.90;;;;;;;;;;5000844;28;20966;-75
2022/01/08 10:03:55;;;;;;;4.55;1.25;;;;;;;;;;5002090;28;20112;-72
2022/01/08 10:06:22;;;;;;;4.63;1.10;;;;;;;;;;4983086;28;20125;-73
2022/01/08 10:08:48;;;;;;;4.43;1.17;;;;;;;;;;4990939;28;20040;-72
2022/01/08 10:11:15;;;;;;;7.10;1.80;;;;;;;;;;4999862;28;20034;-72
2022/01/08 10:13:41;;;;;;;5.43;1.02;;;;;;;;;;4989106;28;20057;-73
2022/01/08 10:17:15;;;;;;;6.78;0.98;;;;;;;;;;4991556;28;20062;-71
2022/01/08 10:19:18;;;;;;;8.38;1.20;;;;;;;;;;4979173;28;20517;-75
2022/01/08 10:21:45;;;;;;;3.85;0.80;;;;;;;;;;4985856;28;20034;-71
2022/01/08 10:24:11;;;;;;;4.65;1.20;;;;;;;;;;4987400;28;20081;-76
2022/01/08 10:26:39;;;;;;;3.88;1.00;;;;;;;;;;4983766;28;20362;-72
2022/01/08 10:29:11;;;;;;;5.43;1.05;;;;;;;;;;4990365;28;20034;-75
2022/01/08 10:31:39;;;;;;;5.03;1.70;;;;;;;;;;4997352;28;20022;-72
2022/01/08 10:34:08;;;;;;;6.13;1.75;;;;;;;;;;4997686;28;20106;-72
2022/01/08 10:36:39;;;;;;;5.80;1.23;;;;;;;;;;4993313;28;20560;-72
2022/01/08 10:39:25;;;;;;;8.00;1.65;;;;;;;;;;4981132;28;20034;-74
2022/01/08 10:41:52;;;;;;;6.60;1.83;;;;;;;;;;4985859;28;20042;-73
2022/01/08 10:44:23;;;;;;;4.45;1.30;;;;;;;;;;4983725;28;20031;-75
2022/01/08 10:46:52;;;;;;;7.80;1.90;;;;;;;;;;4979800;28;20672;-72
2022/01/08 10:49:27;;;;;;;4.03;1.50;;;;;;;;;;4984019;28;20056;-74
2022/01/08 10:51:57;;;;;;;8.50;2.10;;;;;;;;;;4984127;28;20083;-72
2022/01/08 10:54:27;;;;;;;5.28;1.23;;;;;;;;;;4986162;28;20080;-78
2022/01/08 10:56:56;;;;;;;3.67;1.20;;;;;;;;;;4988177;28;20602;-72
2022/01/08 10:59:25;;;;;;;3.38;1.20;;;;;;;;;;4980169;28;20106;-73
2022/01/08 11:02:02;;;;;;;7.72;1.55;;;;;;;;;;4981043;28;20166;-76
2022/01/08 11:04:32;;;;;;;8.25;1.42;;;;;;;;;;4982704;28;20034;-74
2022/01/08 11:07:00;;;;;;;5.60;1.17;;;;;;;;;;4979958;28;20049;-73
2022/01/08 11:09:26;;;;;;;4.78;1.02;;;;;;;;;;4983843;28;20092;-72
2022/01/08 11:11:53;;;;;;;4.78;1.00;;;;;;;;;;4984369;28;20441;-74
2022/01/08 11:14:47;;;;;;;4.60;1.48;;;;;;;;;;4983915;28;20044;-77
2022/01/08 11:17:15;;;;;;;7.55;1.67;;;;;;;;;;4981041;28;20443;-75
2022/01/08 11:19:43;;;;;;;6.07;1.40;;;;;;;;;;4979031;28;20032;-78
2022/01/08 11:22:11;;;;;;;6.07;1.40;;;;;;;;;;4979306;28;20030;-73
2022/01/08 11:24:39;;;;;;;9.55;1.40;;;;;;;;;;4981984;28;20027;-75
2022/01/08 11:27:07;;;;;;;3.80;1.08;;;;;;;;;;4980756;28;20054;-76
2022/01/08 11:29:34;;;;;;;6.22;1.08;;;;;;;;;;4980629;28;20022;-77
2022/01/08 11:32:03;;;;;;;8.23;1.38;;;;;;;;;;4981235;28;20362;-78
2022/01/08 11:34:30;;;;;;;4.30;1.48;;;;;;;;;;4981597;28;20018;-78
2022/01/08 11:36:57;;;;;;;3.55;1.40;;;;;;;;;;4978731;28;20101;-77
2022/01/08 11:39:27;;;;;;;3.75;1.00;;;;;;;;;;4982599;28;20033;-75
2022/01/08 11:41:54;;;;;;;6.22;1.55;;;;;;;;;;4986500;28;20018;-74
2022/01/08 11:44:20;;;;;;;6.00;1.33;;;;;;;;;;4980719;28;20649;-72
2022/01/08 11:46:47;;;;;;;33.03;3.17;;;;;;;;;;4981119;28;20486;-73
2022/01/08 11:49:15;;;;;;;5.22;1.45;;;;;;;;;;4979039;28;20638;-76
2022/01/08 11:51:41;;;;;;;5.38;1.88;;;;;;;;;;4991364;28;20031;-72
2022/01/08 11:54:07;;;;;;;5.03;1.77;;;;;;;;;;4982595;28;20341;-71
2022/01/08 11:56:38;;;;;;;6.75;1.38;;;;;;;;;;4984851;28;20084;-71
2022/01/08 11:59:06;;;;;;;11.32;2.10;;;;;;;;;;4983117;28;20034;-72
2022/01/08 12:01:32;;;;;;;5.60;1.50;;;;;;;;;;4981315;28;20026;-72
2022/01/08 12:03:58;;;;;;;2.80;1.50;;;;;;;;;;4985316;28;20038;-71
2022/01/08 12:06:27;;;;;;;6.40;1.50;;;;;;;;;;4981760;28;20684;-72
2022/01/08 12:11:47;;;;;;;6.82;1.27;;;;;;;;;;4981605;28;20030;-72
2022/01/08 12:14:14;;;;;;;7.85;1.05;;;;;;;;;;4980816;28;20109;-72
2022/01/08 12:16:41;;;;;;;5.53;0.85;;;;;;;;;;4979975;28;20029;-72
2022/01/08 12:19:09;;;;;;;6.38;1.70;;;;;;;;;;4977703;28;20022;-71
2022/01/08 12:21:35;;;;;;;4.50;1.15;;;;;;;;;;4981241;28;20029;-78
2022/01/08 12:24:20;;;;;;;5.47;1.10;;;;;;;;;;4981356;28;20037;-76
2022/01/08 12:26:46;;;;;;;4.10;1.15;;;;;;;;;;4981549;28;20096;-77
2022/01/08 12:29:31;;;;;;;4.15;1.30;;;;;;;;;;4978888;28;20053;-77
2022/01/08 12:32:16;;;;;;;7.38;1.50;;;;;;;;;;4981204;28;20113;-78
2022/01/08 12:34:46;;;;;;;9.00;1.60;;;;;;;;;;4979463;28;20102;-77
2022/01/08 12:37:14;;;;;;;8.13;1.33;;;;;;;;;;4984094;28;20022;-76
2022/01/08 12:39:43;;;;;;;4.00;1.15;;;;;;;;;;4981783;28;20034;-76
2022/01/08 12:42:21;;;;;;;5.05;1.02;;;;;;;;;;4977685;28;20042;-76
2022/01/08 12:45:00;;;;;;;5.72;1.02;;;;;;;;;;4979763;28;20034;-75
2022/01/08 12:47:46;;;;;;;5.78;1.92;;;;;;;;;;4979399;28;20104;-75
2022/01/08 12:50:26;;;;;;;4.60;1.30;;;;;;;;;;4977614;28;20034;-77
2022/01/08 12:53:04;;;;;;;7.95;1.63;;;;;;;;;;4982706;28;20513;-76
2022/01/08 12:55:31;;;;;;;3.55;0.90;;;;;;;;;;4982012;28;20494;-75
2022/01/08 12:57:58;;;;;;;2.35;1.10;;;;;;;;;;4984595;28;20076;-74
2022/01/08 13:00:24;;;;;;;4.60;1.20;;;;;;;;;;4977900;28;20038;-75
2022/01/08 13:02:51;;;;;;;7.13;1.45;;;;;;;;;;4979322;28;20026;-72
2022/01/08 13:05:17;;;;;;;5.22;1.88;;;;;;;;;;4980011;28;20034;-72
2022/01/08 13:07:53;;;;;;;4.72;1.45;;;;;;;;;;4981754;28;20026;-75
2022/01/08 13:10:20;;;;;;;5.68;1.20;;;;;;;;;;4979950;28;20137;-71
2022/01/08 13:13:02;;;;;;;5.20;1.45;;;;;;;;;;4990566;28;20030;-71
2022/01/08 13:15:31;;;;;;;7.07;2.10;;;;;;;;;;4985250;28;20026;-70
2022/01/08 13:18:16;;;;;;;6.88;2.03;;;;;;;;;;4984818;28;20148;-73
2022/01/08 13:20:42;;;;;;;5.68;1.75;;;;;;;;;;4979851;28;20038;-74
2022/01/08 13:23:10;;;;;;;8.52;1.60;;;;;;;;;;4992045;28;20080;-74
2022/01/08 13:25:36;;;;;;;9.10;1.48;;;;;;;;;;4983287;28;20053;-74
2022/01/08 13:28:03;;;;;;;3.42;1.55;;;;;;;;;;4990419;28;20190;-73
2022/01/08 13:30:29;;;;;;;2.92;1.20;;;;;;;;;;4986731;28;20386;-75
2022/01/08 13:33:02;;;;;;;2.58;1.10;;;;;;;;;;4981275;28;20100;-72
2022/01/08 13:35:28;;;;;;;3.55;1.40;;;;;;;;;;4986822;28;20079;-73
2022/01/08 13:37:54;;;;;;;3.97;1.38;;;;;;;;;;4983541;28;20767;-76
2022/01/08 13:40:25;;;;;;;4.72;1.35;;;;;;;;;;4987211;28;20038;-74
2022/01/08 13:42:52;;;;;;;5.28;1.30;;;;;;;;;;4983763;28;20237;-73
2022/01/08 13:45:22;;;;;;;5.05;1.30;;;;;;;;;;4989963;28;20529;-73
2022/01/08 13:47:49;;;;;;;4.97;1.52;;;;;;;;;;4982542;28;20034;-75
2022/01/08 13:50:21;;;;;;;6.32;1.60;;;;;;;;;;4985911;28;20264;-72
2022/01/08 13:52:48;;;;;;;;;;;;;;;;;;4989067;28;20433;-72
2022/01/08 13:55:16;;;;;;;7.60;1.67;;;;;;;;;;4982590;28;19918;-73
2022/01/08 13:57:43;;;;;;;9.25;1.70;;;;;;;;;;4983706;28;20034;-72
2022/01/08 14:00:21;;;;;;;5.30;1.75;;;;;;;;;;4987378;28;20037;-73
2022/01/08 14:02:52;;;;;;;5.28;1.70;;;;;;;;;;4992681;28;20354;-73
2022/01/08 14:05:18;;;;;;;7.13;2.38;;;;;;;;;;4991443;28;20572;-73
2022/01/08 14:07:45;;;;;;;5.80;1.88;;;;;;;;;;4984171;28;20195;-74
2022/01/08 14:10:12;;;;;;;2.47;1.67;;;;;;;;;;4989550;28;20073;-73
2022/01/08 14:12:38;;;;;;;8.57;3.97;;;;;;;;;;4986395;28;20022;-72
2022/01/08 14:15:05;;;;;;;5.80;2.15;;;;;;;;;;4985207;28;20038;-72
2022/01/08 14:17:33;;;;;;;5.68;1.73;;;;;;;;;;4986751;28;20108;-73
2022/01/08 14:20:00;;;;;;;5.90;1.35;;;;;;;;;;4992444;28;20021;-73
2022/01/08 14:22:27;;;;;;;5.25;2.10;;;;;;;;;;4986492;28;20811;-74
2022/01/08 14:24:54;;;;;;;4.57;1.50;;;;;;;;;;4987037;28;20027;-74
2022/01/08 14:27:22;;;;;;;6.43;1.90;;;;;;;;;;4980511;28;20073;-74
2022/01/08 14:30:04;;;;;;;3.38;1.20;;;;;;;;;;4988710;28;20042;-73
2022/01/08 14:32:31;;;;;;;4.32;1.35;;;;;;;;;;4983300;28;20508;-73
2022/01/08 14:35:01;;;;;;;4.03;1.60;;;;;;;;;;4982147;28;20478;-72
2022/01/08 14:37:37;;;;;;;4.18;1.70;;;;;;;;;;4981351;28;20027;-72
2022/01/08 14:40:15;;;;;;;2.33;1.50;;;;;;;;;;4980432;28;20030;-73
2022/01/08 14:42:41;;;;;;;2.78;1.50;;;;;;;;;;4982196;28;20030;-74
2022/01/08 14:45:08;;;;;;;3.50;1.63;;;;;;;;;;4982374;28;20046;-73
2022/01/08 14:47:34;;;;;;;5.00;1.88;;;;;;;;;;4981171;28;20137;-73
2022/01/08 14:50:01;;;;;;;5.80;1.98;;;;;;;;;;4983791;28;20026;-72
2022/01/08 14:52:27;;;;;;;2.92;1.35;;;;;;;;;;4980678;28;20037;-73
2022/01/08 14:54:53;;;;;;;4.72;1.60;;;;;;;;;;4981801;28;20062;-73
2022/01/08 14:57:20;;;;;;;3.10;1.60;;;;;;;;;;4983573;28;20589;-73
2022/01/08 14:59:46;;;;;;;3.67;1.35;;;;;;;;;;4981820;28;20356;-75
2022/01/08 15:02:12;;;;;;;5.32;1.33;;;;;;;;;;4984689;28;20026;-73
2022/01/08 15:04:38;;;;;;;4.22;1.50;;;;;;;;;;4985708;28;20034;-74
2022/01/08 15:07:04;;;;;;;7.70;1.65;;;;;;;;;;4981489;28;20100;-75
2022/01/08 15:09:30;;;;;;;5.60;1.95;;;;;;;;;;4984879;28;20081;-73
2022/01/08 15:11:57;;;;;;;6.95;1.95;;;;;;;;;;4982384;28;20037;-74
2022/01/08 15:14:23;;;;;;;4.78;1.52;;;;;;;;;;4986197;28;20028;-74
2022/01/08 15:16:49;;;;;;;4.93;1.60;;;;;;;;;;4983112;28;20129;-74
2022/01/08 15:19:15;;;;;;;3.00;2.10;;;;;;;;;;4980479;28;20172;-74
2022/01/08 15:21:41;;;;;;;4.05;1.55;;;;;;;;;;4983966;28;20036;-72
2022/01/08 15:24:08;;;;;;;3.63;1.92;;;;;;;;;;4988066;28;20026;-75
2022/01/08 15:26:34;;;;;;;3.30;1.60;;;;;;;;;;4979130;28;20518;-73
2022/01/08 15:29:00;;;;;;;5.95;1.45;;;;;;;;;;4985900;28;20030;-72